Time;durP1;ratioP1;P1;durP2;ratioP2;P2;SDS_P1;SDS_P2;PMS_P1;PMS_P2;Temp;Humidity;BMP_temperature;BMP_pressure;BME280_temperature;BME280_humidity;BME280_pressure;Samples;Min_cycle;Max_cycle;Signal;HPM_P1;HPM_P2
2023/12/16 00:04:37;;;;;;;;;;;;;;;;;;10246370;28;19926;-83
2023/12/16 00:09:38;;;;;;;;;;;;;;;;;;10258687;28;19918;-82
2023/12/16 00:14:40;;;;;;;;;;;;;;;;;;10273961;28;19919;-83
2023/12/16 00:19:40;;;;;;;;;;;;;;;;;;10282846;28;20182;-84
2023/12/16 00:24:41;;;;;;;;;;;;;;;;;;10268360;28;19930;-85
2023/12/16 00:29:41;;;;;;;;;;;;;;;;;;10223038;28;19933;-84
2023/12/16 00:34:42;;;;;;;;;;;;;;;;;;10247625;28;19926;-84
2023/12/16 00:39:42;;;;;;;;;;;;;;;;;;10305273;28;20009;-83
2023/12/16 00:44:42;;;;;;;;;;;;;;;;;;10287445;28;20047;-83
2023/12/16 00:49:42;;;;;;;;;;;;;;;;;;10295515;28;19941;-85
2023/12/16 00:54:43;;;;;;;;;;;;;;;;;;10278350;28;19958;-84
2023/12/16 00:59:43;;;;;;;;;;;;;;;;;;10232862;28;20032;-84
2023/12/16 01:04:45;;;;;;;;;;;;;;;;;;10234749;28;19930;-82
2023/12/16 01:09:46;;;;;;;;;;;;;;;;;;10250475;28;19926;-86
2023/12/16 01:14:46;;;;;;;;;;;;;;;;;;10261273;28;19926;-85
2023/12/16 01:19:46;;;;;;;;;;;;;;;;;;10264671;28;19926;-84
2023/12/16 01:24:48;;;;;;;;;;;;;;;;;;10259783;28;19931;-84
2023/12/16 01:29:48;;;;;;;;;;;;;;;;;;10240656;28;19946;-82
2023/12/16 01:34:50;;;;;;;;;;;;;;;;;;10208945;28;19933;-83
2023/12/16 01:39:50;;;;;;;;;;;;;;;;;;10303998;28;19918;-83
2023/12/16 01:44:51;;;;;;;;;;;;;;;;;;10255927;28;19989;-84
2023/12/16 01:49:51;;;;;;;;;;;;;;;;;;10283157;28;19930;-84
2023/12/16 01:54:52;;;;;;;;;;;;;;;;;;10310727;28;19973;-84
2023/12/16 01:59:55;;;;;;;;;;;;;;;;;;10332338;28;19987;-84
2023/12/16 02:05:03;;;;;;;;;;;;;;;;;;10295491;28;20033;-84
2023/12/16 02:10:04;;;;;;;;;;;;;;;;;;10253041;28;19926;-84
2023/12/16 02:15:05;;;;;;;;;;;;;;;;;;10335318;28;19914;-83
2023/12/16 02:20:05;;;;;;;;;;;;;;;;;;10329003;28;20142;-84
2023/12/16 02:25:06;;;;;;;;;;;;;;;;;;10363586;28;19922;-84
2023/12/16 02:30:06;;;;;;;;;;;;;;;;;;10349065;28;19921;-82
2023/12/16 02:35:07;;;;;;;;;;;;;;;;;;10387903;28;19956;-82
2023/12/16 02:40:07;;;;;;;;;;;;;;;;;;10312320;28;19922;-82
2023/12/16 02:45:08;;;;;;;;;;;;;;;;;;10313496;28;19930;-83
2023/12/16 02:50:12;;;;;;;;;;;;;;;;;;10295707;28;19933;-82
2023/12/16 02:55:12;;;;;;;;;;;;;;;;;;10288549;28;19919;-84
2023/12/16 03:00:12;;;;;;;;;;;;;;;;;;10288161;28;19918;-84
2023/12/16 03:05:14;;;;;;;;;;;;;;;;;;10321212;28;20041;-84
2023/12/16 03:10:14;;;;;;;;;;;;;;;;;;10291756;28;19922;-82
2023/12/16 03:15:14;;;;;;;;;;;;;;;;;;10281777;28;19918;-83
2023/12/16 03:20:16;;;;;;;;;;;;;;;;;;10290812;28;19930;-84
2023/12/16 03:25:18;;;;;;;;;;;;;;;;;;10295989;28;20379;-83
2023/12/16 03:30:18;;;;;;;;;;;;;;;;;;10282829;28;19903;-84
2023/12/16 03:35:24;;;;;;;;;;;;;;;;;;10346120;28;19983;-84
2023/12/16 03:40:26;;;;;;;;;;;;;;;;;;10315165;28;19975;-85
2023/12/16 03:45:27;;;;;;;;;;;;;;;;;;10297867;28;20590;-84
2023/12/16 03:50:32;;;;;;;;;;;;;;;;;;10296035;28;20006;-84
2023/12/16 03:55:33;;;;;;;;;;;;;;;;;;10283597;28;19921;-84
2023/12/16 04:00:34;;;;;;;;;;;;;;;;;;10303928;28;19929;-85
2023/12/16 04:05:37;;;;;;;;;;;;;;;;;;10334177;28;19920;-84
2023/12/16 04:10:37;;;;;;;;;;;;;;;;;;10374084;28;19906;-84
2023/12/16 04:15:38;;;;;;;;;;;;;;;;;;10327113;28;19970;-84
2023/12/16 04:20:42;;;;;;;;;;;;;;;;;;10299463;28;19930;-83
2023/12/16 04:25:47;;;;;;;;;;;;;;;;;;10253692;28;19933;-83
2023/12/16 04:30:47;;;;;;;;;;;;;;;;;;10311442;28;19921;-84
2023/12/16 04:35:48;;;;;;;;;;;;;;;;;;10284470;28;19922;-84
2023/12/16 04:40:48;;;;;;;;;;;;;;;;;;10299026;28;19926;-81
2023/12/16 04:45:48;;;;;;;;;;;;;;;;;;10290841;28;19941;-84
2023/12/16 04:50:52;;;;;;;;;;;;;;;;;;10347409;28;19914;-84
2023/12/16 04:55:55;;;;;;;;;;;;;;;;;;10343693;28;19961;-83
2023/12/16 05:00:56;;;;;;;;;;;;;;;;;;10326045;28;19913;-84
2023/12/16 05:05:56;;;;;;;;;;;;;;;;;;10310000;28;19941;-85
2023/12/16 05:10:57;;;;;;;;;;;;;;;;;;10270946;28;20311;-82
2023/12/16 05:15:58;;;;;;;;;;;;;;;;;;10307244;28;19937;-82
2023/12/16 05:21:03;;;;;;;;;;;;;;;;;;10276823;28;19926;-84
2023/12/16 05:26:03;;;;;;;;;;;;;;;;;;10337504;28;19913;-85
2023/12/16 05:31:05;;;;;;;;;;;;;;;;;;10357902;28;19918;-83
2023/12/16 05:36:08;;;;;;;;;;;;;;;;;;10314146;28;20005;-83
2023/12/16 05:41:08;;;;;;;;;;;;;;;;;;10272546;28;20363;-83
2023/12/16 05:46:10;;;;;;;;;;;;;;;;;;10258954;28;19922;-83
2023/12/16 05:51:10;;;;;;;;;;;;;;;;;;10263180;28;19922;-82
2023/12/16 05:56:13;;;;;;;;;;;;;;;;;;10302984;28;20274;-83
2023/12/16 06:01:20;;;;;;;;;;;;;;;;;;10277813;28;19930;-82
2023/12/16 06:06:22;;;;;;;;;;;;;;;;;;10292463;28;19926;-83
2023/12/16 06:11:23;;;;;;;;;;;;;;;;;;10289388;28;19919;-83
2023/12/16 06:16:23;;;;;;;;;;;;;;;;;;10288636;28;19922;-83
2023/12/16 06:21:24;;;;;;;;;;;;;;;;;;10285551;28;19933;-83
2023/12/16 06:26:26;;;;;;;;;;;;;;;;;;10284197;28;20719;-83
2023/12/16 06:31:27;;;;;;;;;;;;;;;;;;10302823;28;19924;-84
2023/12/16 06:36:27;;;;;;;;;;;;;;;;;;10329069;28;19909;-87
2023/12/16 06:41:32;;;;;;;;;;;;;;;;;;10348683;28;19915;-85
2023/12/16 06:46:33;;;;;;;;;;;;;;;;;;10352942;28;19943;-85
2023/12/16 06:51:34;;;;;;;;;;;;;;;;;;10329756;28;20000;-83
2023/12/16 06:56:41;;;;;;;;;;;;;;;;;;10263626;28;20424;-84
2023/12/16 07:01:42;;;;;;;;;;;;;;;;;;10293415;28;19992;-84
2023/12/16 07:06:42;;;;;;;;;;;;;;;;;;10336742;28;19906;-84
2023/12/16 07:11:45;;;;;;;;;;;;;;;;;;10335686;28;19949;-88
2023/12/16 07:16:46;;;;;;;;;;;;;;;;;;10335629;28;19914;-84
2023/12/16 07:21:48;;;;;;;;;;;;;;;;;;10360826;28;19918;-85
2023/12/16 07:26:50;;;;;;;;;;;;;;;;;;10376399;28;19995;-84
2023/12/16 07:31:51;;;;;;;;;;;;;;;;;;10343591;28;19926;-86
2023/12/16 07:36:51;;;;;;;;;;;;;;;;;;10334700;28;19949;-83
2023/12/16 07:41:52;;;;;;;;;;;;;;;;;;10342085;28;19914;-84
2023/12/16 07:46:54;;;;;;;;;;;;;;;;;;10292522;28;19906;-82
2023/12/16 07:51:57;;;;;;;;;;;;;;;;;;10351229;28;19906;-85
2023/12/16 07:56:57;;;;;;;;;;;;;;;;;;10354601;28;19956;-81
2023/12/16 08:02:03;;;;;;;;;;;;;;;;;;10353786;28;19988;-83
2023/12/16 08:07:15;;;;;;;;;;;;;;;;;;10344128;28;19914;-82
2023/12/16 08:12:47;;;;;;;;;;;;;;;;;;10342160;28;19914;-84
2023/12/16 08:18:28;;;;;;;;;;;;;;;;;;10379230;23;19914;-84
2023/12/16 08:23:29;;;;;;;;;;;;;;;;;;10285652;28;19933;-85
2023/12/16 08:28:29;;;;;;;;;;;;;;;;;;10271406;28;19986;-83
2023/12/16 08:33:29;;;;;;;;;;;;;;;;;;10306611;28;19957;-83
2023/12/16 08:38:32;;;;;;;;;;;;;;;;;;10244740;28;20575;-83
2023/12/16 08:43:33;;;;;;;;;;;;;;;;;;10269570;28;19930;-83
2023/12/16 08:48:33;;;;;;;;;;;;;;;;;;10303935;28;19926;-82
2023/12/16 08:53:33;;;;;;;;;;;;;;;;;;10328140;28;20540;-82
2023/12/16 08:58:35;;;;;;;;;;;;;;;;;;10318257;28;19981;-82
2023/12/16 09:03:36;;;;;;;;;;;;;;;;;;10307961;28;20041;-84
2023/12/16 09:09:09;;;;;;;;;;;;;;;;;;10304154;28;19906;-82
2023/12/16 09:14:10;;;;;;;;;;;;;;;;;;10347284;28;19929;-84
2023/12/16 09:19:11;;;;;;;;;;;;;;;;;;10331991;28;20005;-81
2023/12/16 09:24:12;;;;;;;;;;;;;;;;;;10316400;28;19934;-82
2023/12/16 09:29:12;;;;;;;;;;;;;;;;;;10229841;28;19922;-83
2023/12/16 09:34:13;;;;;;;;;;;;;;;;;;10277482;28;19980;-81
2023/12/16 09:39:16;;;;;;;;;;;;;;;;;;10249111;28;19956;-82
2023/12/16 09:44:17;;;;;;;;;;;;;;;;;;10268019;28;19930;-83
2023/12/16 09:49:19;;;;;;;;;;;;;;;;;;10312851;28;20001;-82
2023/12/16 09:54:21;;;;;;;;;;;;;;;;;;10272786;28;19930;-82
2023/12/16 09:59:41;;;;;;;;;;;;;;;;;;10309715;28;19926;-83
2023/12/16 10:04:43;;;;;;;;;;;;;;;;;;10344709;28;20048;-85
2023/12/16 10:09:44;;;;;;;;;;;;;;;;;;10326652;28;19932;-86
2023/12/16 10:14:44;;;;;;;;;;;;;;;;;;10268019;28;20788;-78
2023/12/16 10:19:44;;;;;;;;;;;;;;;;;;10304085;28;20773;-75
2023/12/16 10:24:44;;;;;;;;;;;;;;;;;;10306146;28;20028;-85
2023/12/16 10:29:45;;;;;;;;;;;;;;;;;;10307676;28;19926;-85
2023/12/16 10:34:46;;;;;;;;;;;;;;;;;;10238969;28;20020;-79
2023/12/16 10:39:47;;;;;;;;;;;;;;;;;;10317298;28;19932;-86
2023/12/16 10:44:51;;;;;;;;;;;;;;;;;;10288881;28;19933;-87
2023/12/16 10:49:52;;;;;;;;;;;;;;;;;;10310806;28;19933;-85
2023/12/16 10:54:52;;;;;;;;;;;;;;;;;;10311942;28;19923;-84
2023/12/16 10:59:52;;;;;;;;;;;;;;;;;;10334189;28;19921;-87
2023/12/16 11:04:53;;;;;;;;;;;;;;;;;;10326984;28;19930;-84
2023/12/16 11:09:53;;;;;;;;;;;;;;;;;;10322559;28;19926;-82
2023/12/16 11:14:55;;;;;;;;;;;;;;;;;;10323944;28;19926;-87
2023/12/16 11:19:56;;;;;;;;;;;;;;;;;;10269679;28;19924;-85
2023/12/16 11:24:57;;;;;;;;;;;;;;;;;;10283683;28;19933;-87
2023/12/16 11:30:02;;;;;;;;;;;;;;;;;;10285876;28;19969;-85
2023/12/16 11:35:06;;;;;;;;;;;;;;;;;;10299177;28;19933;-85
2023/12/16 11:40:07;;;;;;;;;;;;;;;;;;10245331;28;19949;-86
2023/12/16 11:45:07;;;;;;;;;;;;;;;;;;10220956;28;19930;-83
2023/12/16 11:50:08;;;;;;;;;;;;;;;;;;10225405;28;19923;-84
2023/12/16 11:55:09;;;;;;;;;;;;;;;;;;10238639;28;20312;-83
2023/12/16 12:00:09;;;;;;;;;;;;;;;;;;10261005;28;19922;-83
2023/12/16 12:05:11;;;;;;;;;;;;;;;;;;10265238;28;19936;-82
2023/12/16 12:10:13;;;;;;;;;;;;;;;;;;10266704;28;19918;-81
2023/12/16 12:15:14;;;;;;;;;;;;;;;;;;10285556;28;19942;-79
2023/12/16 12:20:14;;;;;;;;;;;;;;;;;;10292339;28;19941;-78
2023/12/16 12:25:15;;;;;;;;;;;;;;;;;;10291294;28;19930;-81
2023/12/16 12:30:16;;;;;;;;;;;;;;;;;;10262493;28;19927;-78
2023/12/16 12:35:17;;;;;;;;;;;;;;;;;;10234279;28;20524;-80
2023/12/16 12:40:17;;;;;;;;;;;;;;;;;;10224829;28;19930;-79
2023/12/16 12:45:18;;;;;;;;;;;;;;;;;;10281340;28;19930;-79
2023/12/16 12:50:20;;;;;;;;;;;;;;;;;;10279142;28;19922;-79
2023/12/16 12:55:21;;;;;;;;;;;;;;;;;;10278119;28;20017;-77
2023/12/16 13:00:22;;;;;;;;;;;;;;;;;;10269162;28;19926;-80
2023/12/16 13:05:22;;;;;;;;;;;;;;;;;;10270612;28;20022;-81
2023/12/16 13:10:22;;;;;;;;;;;;;;;;;;10228754;28;19922;-80
2023/12/16 13:15:24;;;;;;;;;;;;;;;;;;10236208;28;19945;-79
2023/12/16 13:20:27;;;;;;;;;;;;;;;;;;10229053;28;19933;-81
2023/12/16 13:25:27;;;;;;;;;;;;;;;;;;10238871;28;19949;-83
2023/12/16 13:30:28;;;;;;;;;;;;;;;;;;10245400;28;19923;-83
2023/12/16 13:35:30;;;;;;;;;;;;;;;;;;10244235;28;20025;-80
2023/12/16 13:40:30;;;;;;;;;;;;;;;;;;10187980;28;19937;-80
2023/12/16 13:45:31;;;;;;;;;;;;;;;;;;10223961;28;19941;-81
2023/12/16 13:50:32;;;;;;;;;;;;;;;;;;10245403;28;20368;-79
2023/12/16 13:55:33;;;;;;;;;;;;;;;;;;10250701;28;19926;-82
2023/12/16 14:00:33;;;;;;;;;;;;;;;;;;10223152;28;20371;-80
2023/12/16 14:05:33;;;;;;;;;;;;;;;;;;10226584;28;19938;-83
2023/12/16 14:10:37;;;;;;;;;;;;;;;;;;10249436;28;19922;-79
2023/12/16 14:15:37;;;;;;;;;;;;;;;;;;10224901;28;20344;-81
2023/12/16 14:20:37;;;;;;;;;;;;;;;;;;10232678;28;19949;-80
2023/12/16 14:25:39;;;;;;;;;;;;;;;;;;10252139;28;19930;-81
2023/12/16 14:30:39;;;;;;;;;;;;;;;;;;10238346;28;19922;-80
2023/12/16 14:35:39;;;;;;;;;;;;;;;;;;10243856;28;19977;-77
2023/12/16 14:40:41;;;;;;;;;;;;;;;;;;10213267;28;19926;-79
2023/12/16 14:45:41;;;;;;;;;;;;;;;;;;10223889;28;20020;-75
2023/12/16 14:50:42;;;;;;;;;;;;;;;;;;10224192;28;19929;-79
2023/12/16 14:55:42;;;;;;;;;;;;;;;;;;10245184;28;19922;-77
2023/12/16 15:00:42;;;;;;;;;;;;;;;;;;10215445;28;19974;-77
2023/12/16 15:05:44;;;;;;;;;;;;;;;;;;10234846;28;19930;-80
2023/12/16 15:10:44;;;;;;;;;;;;;;;;;;10220714;28;19985;-79
2023/12/16 15:15:44;;;;;;;;;;;;;;;;;;10246543;28;19988;-79
2023/12/16 15:20:45;;;;;;;;;;;;;;;;;;10235998;28;20771;-79
2023/12/16 15:25:45;;;;;;;;;;;;;;;;;;10251869;28;19949;-78
2023/12/16 15:30:45;;;;;;;;;;;;;;;;;;10232413;28;19926;-78
2023/12/16 15:35:46;;;;;;;;;;;;;;;;;;10238960;28;20043;-78
2023/12/16 15:40:48;;;;;;;;;;;;;;;;;;10248903;28;20379;-78
2023/12/16 15:45:48;;;;;;;;;;;;;;;;;;10247125;28;19929;-78
2023/12/16 15:50:48;;;;;;;;;;;;;;;;;;10249308;28;19962;-82
2023/12/16 15:55:48;;;;;;;;;;;;;;;;;;10277844;28;20454;-79
2023/12/16 16:00:51;;;;;;;;;;;;;;;;;;10258345;28;20462;-78
2023/12/16 16:05:51;;;;;;;;;;;;;;;;;;10229799;28;20049;-79
2023/12/16 16:10:52;;;;;;;;;;;;;;;;;;10241133;28;19922;-79
2023/12/16 16:15:52;;;;;;;;;;;;;;;;;;10247873;28;19922;-79
2023/12/16 16:20:52;;;;;;;;;;;;;;;;;;10239081;28;19922;-80
2023/12/16 16:25:53;;;;;;;;;;;;;;;;;;10227501;28;20012;-79
2023/12/16 16:30:55;;;;;;;;;;;;;;;;;;10240056;28;19926;-79
2023/12/16 16:35:55;;;;;;;;;;;;;;;;;;10233157;28;20775;-79
2023/12/16 16:40:56;;;;;;;;;;;;;;;;;;10244607;28;19938;-78
2023/12/16 16:45:56;;;;;;;;;;;;;;;;;;10240910;28;19938;-78
2023/12/16 16:50:56;;;;;;;;;;;;;;;;;;10220470;28;19926;-79
2023/12/16 16:55:56;;;;;;;;;;;;;;;;;;10245263;28;19942;-79
2023/12/16 17:00:57;;;;;;;;;;;;;;;;;;10239672;28;19994;-79
2023/12/16 17:05:57;;;;;;;;;;;;;;;;;;10207330;28;20364;-77
2023/12/16 17:10:59;;;;;;;;;;;;;;;;;;10219245;28;20342;-83
2023/12/16 17:15:59;;;;;;;;;;;;;;;;;;10226520;28;19919;-76
2023/12/16 17:21:01;;;;;;;;;;;;;;;;;;10240142;28;19922;-80
2023/12/16 17:26:05;;;;;;;;;;;;;;;;;;10239561;28;19937;-81
2023/12/16 17:31:07;;;;;;;;;;;;;;;;;;10265909;28;19922;-79
2023/12/16 17:36:08;;;;;;;;;;;;;;;;;;10255701;28;19985;-78
2023/12/16 17:41:10;;;;;;;;;;;;;;;;;;10268328;28;19930;-78
2023/12/16 17:46:10;;;;;;;;;;;;;;;;;;10254622;28;19968;-80
2023/12/16 17:51:11;;;;;;;;;;;;;;;;;;10248778;28;20055;-78
2023/12/16 17:56:11;;;;;;;;;;;;;;;;;;10210807;28;19925;-79
2023/12/16 18:01:19;;;;;;;;;;;;;;;;;;10241766;28;19926;-77
2023/12/16 18:06:24;;;;;;;;;;;;;;;;;;10243859;28;20486;-80
2023/12/16 18:11:28;;;;;;;;;;;;;;;;;;10230527;28;20064;-78
2023/12/16 18:16:29;;;;;;;;;;;;;;;;;;10242312;28;20421;-81
2023/12/16 18:21:30;;;;;;;;;;;;;;;;;;10225475;28;19922;-79
2023/12/16 18:26:30;;;;;;;;;;;;;;;;;;10240149;28;19933;-79
2023/12/16 18:31:31;;;;;;;;;;;;;;;;;;10205978;28;20038;-79
2023/12/16 18:36:32;;;;;;;;;;;;;;;;;;10242514;28;20465;-81
2023/12/16 18:41:32;;;;;;;;;;;;;;;;;;10245945;28;20416;-79
2023/12/16 18:46:38;;;;;;;;;;;;;;;;;;10192528;28;20447;-79
2023/12/16 18:51:41;;;;;;;;;;;;;;;;;;10207755;28;20582;-79
2023/12/16 18:56:44;;;;;;;;;;;;;;;;;;10217416;28;19922;-80
2023/12/16 19:01:45;;;;;;;;;;;;;;;;;;10229382;28;19973;-81
2023/12/16 19:06:45;;;;;;;;;;;;;;;;;;10211540;28;20384;-80
2023/12/16 19:11:45;;;;;;;;;;;;;;;;;;10213986;28;19929;-78
2023/12/16 19:16:47;;;;;;;;;;;;;;;;;;10246986;28;19923;-80
2023/12/16 19:21:48;;;;;;;;;;;;;;;;;;10286959;28;19934;-80
2023/12/16 19:26:49;;;;;;;;;;;;;;;;;;10250640;28;19922;-79
2023/12/16 19:31:51;;;;;;;;;;;;;;;;;;10255052;28;19955;-78
2023/12/16 19:36:52;;;;;;;;;;;;;;;;;;10186325;28;19932;-80
2023/12/16 19:41:53;;;;;;;;;;;;;;;;;;10248445;28;20474;-79
2023/12/16 19:46:53;;;;;;;;;;;;;;;;;;10205663;28;19922;-82
2023/12/16 19:51:53;;;;;;;;;;;;;;;;;;10216065;28;20850;-82
2023/12/16 19:56:54;;;;;;;;;;;;;;;;;;10253156;28;20555;-84
2023/12/16 20:01:56;;;;;;;;;;;;;;;;;;10206403;28;19932;-84
2023/12/16 20:07:00;;;;;;;;;;;;;;;;;;10229908;28;21227;-79
2023/12/16 20:12:03;;;;;;;;;;;;;;;;;;10219302;28;19918;-81
2023/12/16 20:17:04;;;;;;;;;;;;;;;;;;10260823;28;20803;-81
2023/12/16 20:22:05;;;;;;;;;;;;;;;;;;10289975;28;19925;-83
2023/12/16 20:27:11;;;;;;;;;;;;;;;;;;10292691;28;19926;-90
2023/12/16 20:32:21;;;;;;;;;;;;;;;;;;10299726;28;19922;-83
2023/12/16 20:37:23;;;;;;;;;;;;;;;;;;10279454;28;19922;-87
2023/12/16 20:42:28;;;;;;;;;;;;;;;;;;10291876;28;21020;-87
2023/12/16 20:47:33;;;;;;;;;;;;;;;;;;10316292;28;19906;-86
2023/12/16 20:52:36;;;;;;;;;;;;;;;;;;10335463;28;19949;-87
2023/12/16 20:57:38;;;;;;;;;;;;;;;;;;10321782;28;19936;-87
2023/12/16 21:02:39;;;;;;;;;;;;;;;;;;10359799;28;19940;-83
2023/12/16 21:07:39;;;;;;;;;;;;;;;;;;10354586;28;19906;-83
2023/12/16 21:12:40;;;;;;;;;;;;;;;;;;10330522;28;19911;-88
2023/12/16 21:17:40;;;;;;;;;;;;;;;;;;10315776;28;19928;-85
2023/12/16 21:22:41;;;;;;;;;;;;;;;;;;10317655;23;19989;-84
2023/12/16 21:27:43;;;;;;;;;;;;;;;;;;10329846;28;19929;-85
2023/12/16 21:32:51;;;;;;;;;;;;;;;;;;10321710;28;20892;-86
2023/12/16 21:37:55;;;;;;;;;;;;;;;;;;10252503;28;19930;-82
2023/12/16 21:42:56;;;;;;;;;;;;;;;;;;10232125;28;19936;-82
2023/12/16 21:47:57;;;;;;;;;;;;;;;;;;10257458;28;19933;-86
2023/12/16 21:52:57;;;;;;;;;;;;;;;;;;10239754;28;19926;-86
2023/12/16 21:57:58;;;;;;;;;;;;;;;;;;10212197;28;19967;-83
2023/12/16 22:03:04;;;;;;;;;;;;;;;;;;10277862;28;19985;-86
2023/12/16 22:08:06;;;;;;;;;;;;;;;;;;10286055;28;19906;-87
2023/12/16 22:13:06;;;;;;;;;;;;;;;;;;10297145;28;19922;-87
2023/12/16 22:18:09;;;;;;;;;;;;;;;;;;10274225;28;19926;-89
2023/12/16 22:23:11;;;;;;;;;;;;;;;;;;10303327;28;19941;-84
2023/12/16 22:28:11;;;;;;;;;;;;;;;;;;10238197;28;19922;-84
2023/12/16 22:33:11;;;;;;;;;;;;;;;;;;10251654;28;20022;-84
2023/12/16 22:38:13;;;;;;;;;;;;;;;;;;10278035;28;20316;-82
2023/12/16 22:43:13;;;;;;;;;;;;;;;;;;10308307;28;20020;-80
2023/12/16 22:48:14;;;;;;;;;;;;;;;;;;10282908;28;19933;-79
2023/12/16 22:53:15;;;;;;;;;;;;;;;;;;10309411;28;19922;-81
2023/12/16 22:58:16;;;;;;;;;;;;;;;;;;10296224;28;19921;-83
2023/12/16 23:03:16;;;;;;;;;;;;;;;;;;10271581;28;20429;-82
2023/12/16 23:08:18;;;;;;;;;;;;;;;;;;10321282;28;19922;-81
2023/12/16 23:13:21;;;;;;;;;;;;;;;;;;10314332;28;20382;-78
2023/12/16 23:18:22;;;;;;;;;;;;;;;;;;10302875;28;19925;-81
2023/12/16 23:23:23;;;;;;;;;;;;;;;;;;10262370;28;19929;-83
2023/12/16 23:28:25;;;;;;;;;;;;;;;;;;10294557;28;19925;-84
2023/12/16 23:33:25;;;;;;;;;;;;;;;;;;10255397;28;22609;-82
2023/12/16 23:38:26;;;;;;;;;;;;;;;;;;10213796;28;19941;-78
2023/12/16 23:43:28;;;;;;;;;;;;;;;;;;10233792;28;19973;-78
2023/12/16 23:48:28;;;;;;;;;;;;;;;;;;10252140;28;19933;-82
2023/12/16 23:53:29;;;;;;;;;;;;;;;;;;10258425;28;19933;-87
2023/12/16 23:58:29;;;;;;;;;;;;;;;;;;10230551;28;19919;-85
